Time;durP1;ratioP1;P1;durP2;ratioP2;P2;SDS_P1;SDS_P2;PMS_P1;PMS_P2;Temp;Humidity;BMP_temperature;BMP_pressure;BME280_temperature;BME280_humidity;BME280_pressure;Samples;Min_cycle;Max_cycle;Signal;HPM_P1;HPM_P2
2023/09/10 00:01:36;;;;;;;12.75;9.20;;;14.30;99.90;;;;;;5096137;28;20020;-62
2023/09/10 00:04:02;;;;;;;10.50;9.05;;;14.30;99.90;;;;;;5114059;28;20058;-62
2023/09/10 00:06:27;;;;;;;12.32;9.98;;;14.30;99.90;;;;;;5114364;28;20027;-62
2023/09/10 00:08:53;;;;;;;10.93;9.23;;;14.20;99.90;;;;;;5096048;28;20047;-62
2023/09/10 00:11:19;;;;;;;11.68;9.38;;;14.20;99.90;;;;;;5114275;28;20020;-63
2023/09/10 00:13:44;;;;;;;13.75;10.02;;;14.20;99.90;;;;;;5095956;28;20028;-62
2023/09/10 00:16:10;;;;;;;12.43;10.02;;;14.20;99.90;;;;;;5114287;28;20476;-62
2023/09/10 00:18:35;;;;;;;11.02;9.50;;;14.20;99.90;;;;;;5095961;28;20400;-63
2023/09/10 00:21:01;;;;;;;17.13;10.05;;;14.10;99.90;;;;;;5114438;28;20024;-62
2023/09/10 00:23:27;;;;;;;14.70;10.13;;;14.10;99.90;;;;;;5114534;28;20032;-62
2023/09/10 00:25:54;;;;;;;13.70;9.23;;;14.10;99.90;;;;;;5114097;28;20020;-62
2023/09/10 00:28:20;;;;;;;14.55;9.77;;;14.10;99.90;;;;;;5116613;28;20095;-63
2023/09/10 00:30:54;;;;;;;12.35;9.90;;;14.00;99.90;;;;;;5100117;28;20100;-63
2023/09/10 00:33:20;;;;;;;11.52;9.50;;;14.00;99.90;;;;;;5118295;28;20020;-62
2023/09/10 00:35:46;;;;;;;18.60;10.13;;;13.90;99.90;;;;;;5099984;28;20027;-62
2023/09/10 00:38:12;;;;;;;13.00;9.68;;;13.90;99.90;;;;;;5118231;28;20033;-62
2023/09/10 00:40:38;;;;;;;14.60;10.65;;;13.90;99.90;;;;;;5118225;28;20024;-63
2023/09/10 00:43:03;;;;;;;16.10;10.65;;;13.90;99.90;;;;;;5099907;28;20027;-62
2023/09/10 00:45:30;;;;;;;12.98;10.30;;;13.80;99.90;;;;;;5117861;28;20023;-63
2023/09/10 00:47:56;;;;;;;12.73;9.85;;;13.80;99.90;;;;;;5117787;28;20099;-62
2023/09/10 00:50:22;;;;;;;11.65;10.35;;;13.70;99.90;;;;;;5100004;28;20074;-62
2023/09/10 00:52:55;;;;;;;14.35;10.15;;;13.70;99.90;;;;;;5118309;28;20075;-62
2023/09/10 00:55:22;;;;;;;13.52;10.55;;;13.70;99.90;;;;;;5099616;28;20036;-63
2023/09/10 00:57:48;;;;;;;13.07;10.18;;;13.70;99.90;;;;;;5099706;28;20042;-62
2023/09/10 01:00:15;;;;;;;12.13;9.55;;;13.70;99.90;;;;;;5099952;28;20031;-63
2023/09/10 01:02:44;;;;;;;16.50;10.35;;;13.70;99.90;;;;;;5117883;28;20028;-62
2023/09/10 01:05:11;;;;;;;;;;;13.60;99.90;;;;;;5118241;28;20024;-63
2023/09/10 01:07:37;;;;;;;11.93;9.90;;;13.60;99.90;;;;;;5117339;28;20340;-62
2023/09/10 01:10:03;;;;;;;12.77;9.63;;;13.60;99.90;;;;;;5117729;28;20566;-62
2023/09/10 01:12:43;;;;;;;14.32;10.90;;;13.60;99.90;;;;;;5099260;28;20067;-62
2023/09/10 01:15:36;;;;;;;13.10;9.48;;;13.60;99.90;;;;;;5099012;28;20027;-62
2023/09/10 01:18:28;;;;;;;13.65;9.93;;;13.60;99.90;;;;;;5117526;28;20030;-62
2023/09/10 01:21:21;;;;;;;14.40;10.45;;;13.60;99.90;;;;;;5117798;28;20027;-62
2023/09/10 01:24:08;;;;;;;12.60;10.75;;;13.50;99.90;;;;;;5117697;28;20464;-62
2023/09/10 01:26:36;;;;;;;13.43;10.25;;;13.50;99.90;;;;;;5098716;28;20032;-62
2023/09/10 01:29:04;;;;;;;12.55;10.15;;;13.50;99.90;;;;;;5098976;28;20072;-62
2023/09/10 01:31:32;;;;;;;21.88;10.70;;;13.50;99.90;;;;;;5098967;28;20024;-62
2023/09/10 01:34:03;;;;;;;13.98;10.60;;;13.50;99.90;;;;;;5117241;28;20043;-62
2023/09/10 01:36:40;;;;;;;15.05;10.75;;;13.40;99.90;;;;;;5098891;28;20530;-62
2023/09/10 01:39:15;;;;;;;10.82;9.73;;;13.40;99.90;;;;;;5097925;28;20089;-62
2023/09/10 01:41:42;;;;;;;16.02;10.70;;;13.40;99.90;;;;;;5098779;28;20469;-62
2023/09/10 01:44:08;;;;;;;14.18;10.05;;;13.40;99.90;;;;;;5117003;28;20077;-62
2023/09/10 01:46:36;;;;;;;13.07;10.05;;;13.40;99.90;;;;;;5098780;28;20024;-62
2023/09/10 01:49:02;;;;;;;13.65;10.93;;;13.40;99.90;;;;;;5098781;28;20118;-62
2023/09/10 01:51:28;;;;;;;14.95;10.93;;;13.30;99.90;;;;;;5116818;28;20477;-63
2023/09/10 01:53:53;;;;;;;11.90;10.60;;;13.30;99.90;;;;;;5098507;28;20038;-62
2023/09/10 01:56:20;;;;;;;12.25;10.13;;;13.30;99.90;;;;;;5116508;28;20028;-62
2023/09/10 01:58:46;;;;;;;14.00;10.55;;;13.30;99.90;;;;;;5116724;28;20052;-62
2023/09/10 02:01:11;;;;;;;14.48;10.23;;;13.20;99.90;;;;;;5098547;28;20027;-62
2023/09/10 02:03:37;;;;;;;14.60;10.60;;;13.20;99.90;;;;;;5116777;28;20027;-62
2023/09/10 02:06:03;;;;;;;12.18;10.30;;;13.20;99.90;;;;;;5116504;28;20469;-62
2023/09/10 02:08:29;;;;;;;12.05;10.77;;;13.20;99.90;;;;;;5116601;28;20028;-62
2023/09/10 02:10:55;;;;;;;14.45;10.27;;;13.10;99.90;;;;;;5116418;28;20472;-63
2023/09/10 02:13:21;;;;;;;14.88;11.27;;;13.10;99.90;;;;;;5116485;28;20035;-62
2023/09/10 02:15:46;;;;;;;14.68;11.05;;;13.10;99.90;;;;;;5098153;28;20024;-62
2023/09/10 02:18:12;;;;;;;12.98;10.23;;;13.10;99.90;;;;;;5098204;28;20024;-63
2023/09/10 02:20:38;;;;;;;14.57;10.93;;;13.10;99.90;;;;;;5116463;28;20027;-62
2023/09/10 02:23:04;;;;;;;15.48;10.80;;;13.10;99.90;;;;;;5098217;28;20039;-62
2023/09/10 02:25:32;;;;;;;15.32;10.45;;;13.10;99.90;;;;;;5116554;28;20123;-63
2023/09/10 02:27:59;;;;;;;17.97;10.80;;;13.10;99.90;;;;;;5098132;28;20045;-62
2023/09/10 02:30:25;;;;;;;12.55;10.98;;;13.10;99.90;;;;;;5116359;28;20027;-62
2023/09/10 02:32:51;;;;;;;14.57;10.48;;;13.00;99.90;;;;;;5116431;28;20054;-66
2023/09/10 02:35:16;;;;;;;14.00;11.38;;;13.10;99.90;;;;;;5116742;28;20362;-63
2023/09/10 02:37:42;;;;;;;13.85;10.63;;;13.00;99.90;;;;;;5117768;28;20039;-63
2023/09/10 02:40:09;;;;;;;17.08;10.50;;;13.00;99.90;;;;;;5117670;28;20020;-63
2023/09/10 02:42:34;;;;;;;14.27;11.13;;;13.00;99.90;;;;;;5098839;28;20476;-62
2023/09/10 02:45:02;;;;;;;14.80;10.77;;;13.00;99.90;;;;;;5117855;28;20027;-63
2023/09/10 02:47:27;;;;;;;13.68;10.80;;;13.00;99.90;;;;;;5117154;28;20023;-62
2023/09/10 02:49:54;;;;;;;13.15;10.80;;;13.00;99.90;;;;;;5117314;28;20111;-62
2023/09/10 02:52:24;;;;;;;17.00;11.70;;;12.90;99.90;;;;;;5097656;28;20412;-63
2023/09/10 02:54:51;;;;;;;15.05;11.50;;;12.90;99.90;;;;;;5117187;28;20546;-63
2023/09/10 02:57:17;;;;;;;15.77;11.25;;;12.90;99.90;;;;;;5099418;28;20024;-63
2023/09/10 02:59:42;;;;;;;14.13;10.73;;;12.90;99.90;;;;;;5117128;28;20426;-62
2023/09/10 03:02:08;;;;;;;12.52;10.55;;;12.80;99.90;;;;;;5117805;28;20111;-62
2023/09/10 03:04:34;;;;;;;13.25;10.43;;;12.80;99.90;;;;;;5117135;28;20100;-62
2023/09/10 03:07:01;;;;;;;12.73;11.18;;;12.80;99.90;;;;;;5117333;28;20071;-62
2023/09/10 03:09:27;;;;;;;15.48;11.23;;;12.80;99.90;;;;;;5099194;28;20463;-62
2023/09/10 03:11:52;;;;;;;13.57;10.93;;;12.80;99.90;;;;;;5116159;28;20099;-63
2023/09/10 03:14:18;;;;;;;13.23;10.45;;;12.80;99.90;;;;;;5116455;28;20031;-62
2023/09/10 03:16:44;;;;;;;13.27;10.73;;;12.80;99.90;;;;;;5116212;28;20016;-62
2023/09/10 03:19:10;;;;;;;17.08;12.15;;;12.70;99.90;;;;;;5116611;28;20028;-62
2023/09/10 03:21:37;;;;;;;14.30;11.35;;;12.70;99.90;;;;;;5097589;28;20023;-62
2023/09/10 03:24:03;;;;;;;16.40;11.43;;;12.70;99.90;;;;;;5116210;28;20028;-65
2023/09/10 03:26:29;;;;;;;13.32;11.95;;;12.70;99.90;;;;;;5115915;28;20027;-62
2023/09/10 03:28:55;;;;;;;14.48;10.93;;;12.60;99.90;;;;;;5116135;28;20457;-62
2023/09/10 03:31:20;;;;;;;13.93;10.80;;;12.60;99.90;;;;;;5116879;28;20023;-62
2023/09/10 03:33:47;;;;;;;14.93;10.85;;;12.60;99.90;;;;;;5115790;28;20055;-62
2023/09/10 03:36:13;;;;;;;16.90;11.63;;;12.60;99.90;;;;;;5115992;28;20169;-62
2023/09/10 03:38:39;;;;;;;13.45;10.93;;;12.60;99.90;;;;;;5116432;28;20086;-62
2023/09/10 03:41:04;;;;;;;17.42;11.30;;;12.60;99.90;;;;;;5098604;28;20055;-62
2023/09/10 03:43:30;;;;;;;14.55;10.85;;;12.50;99.90;;;;;;5115237;28;20027;-62
2023/09/10 03:45:56;;;;;;;15.60;11.07;;;12.50;99.90;;;;;;5115356;28;20070;-62
2023/09/10 03:48:21;;;;;;;13.52;11.27;;;12.50;99.90;;;;;;5096814;28;20370;-62
2023/09/10 03:50:47;;;;;;;13.90;10.93;;;12.50;99.90;;;;;;5096643;28;20062;-62
2023/09/10 03:53:12;;;;;;;15.13;11.02;;;12.40;99.90;;;;;;5115546;28;20411;-62
2023/09/10 03:55:39;;;;;;;17.60;10.88;;;12.40;99.90;;;;;;5114912;28;20457;-62
2023/09/10 03:58:05;;;;;;;17.15;10.95;;;12.40;99.90;;;;;;5114528;28;20077;-62
2023/09/10 04:00:33;;;;;;;14.30;11.55;;;12.40;99.90;;;;;;5096762;28;20019;-62
2023/09/10 04:02:59;;;;;;;13.90;10.77;;;12.40;99.90;;;;;;5096426;28;20147;-63
2023/09/10 04:05:25;;;;;;;16.88;11.32;;;12.30;99.90;;;;;;5097130;28;20027;-62
2023/09/10 04:07:50;;;;;;;11.80;10.50;;;12.30;99.90;;;;;;5114721;28;20023;-62
2023/09/10 04:10:16;;;;;;;14.18;11.45;;;12.30;99.90;;;;;;5114893;28;20469;-62
2023/09/10 04:12:42;;;;;;;15.88;11.60;;;12.30;99.90;;;;;;5114980;28;20615;-62
2023/09/10 04:15:08;;;;;;;13.00;11.15;;;12.30;99.90;;;;;;5114813;28;20023;-62
2023/09/10 04:17:33;;;;;;;15.43;10.95;;;12.30;99.90;;;;;;5096361;28;20024;-62
2023/09/10 04:19:59;;;;;;;13.90;11.48;;;12.20;99.90;;;;;;5096203;28;20114;-62
2023/09/10 04:22:25;;;;;;;14.50;11.23;;;12.20;99.90;;;;;;5096212;28;20039;-62
2023/09/10 04:24:51;;;;;;;13.27;11.43;;;12.30;99.90;;;;;;5114320;28;20034;-62
2023/09/10 04:27:16;;;;;;;16.55;11.48;;;12.30;99.90;;;;;;5096349;28;20024;-62
2023/09/10 04:29:42;;;;;;;16.70;12.00;;;12.30;99.90;;;;;;5114804;28;20027;-62
2023/09/10 04:32:08;;;;;;;12.80;11.02;;;12.20;99.90;;;;;;5097142;28;20023;-62
2023/09/10 04:34:34;;;;;;;15.93;12.70;;;12.30;99.90;;;;;;5099488;28;20066;-63
2023/09/10 04:36:59;;;;;;;14.18;12.07;;;12.30;99.90;;;;;;5119021;28;20058;-62
2023/09/10 04:39:26;;;;;;;14.95;11.57;;;12.30;99.90;;;;;;5099681;28;20024;-62
2023/09/10 04:41:51;;;;;;;16.38;12.10;;;12.30;99.90;;;;;;5099094;28;20024;-65
2023/09/10 04:44:17;;;;;;;13.68;11.77;;;12.30;99.90;;;;;;5116411;28;20050;-63
2023/09/10 04:46:43;;;;;;;13.88;11.73;;;12.30;99.90;;;;;;5115844;28;20034;-63
2023/09/10 04:49:08;;;;;;;16.77;12.38;;;12.30;99.90;;;;;;5115016;28;20468;-62
2023/09/10 04:51:34;;;;;;;14.40;11.98;;;12.30;99.90;;;;;;5115273;28;20123;-62
2023/09/10 04:53:59;;;;;;;15.20;11.00;;;12.30;99.90;;;;;;5114263;28;20059;-62
2023/09/10 04:56:25;;;;;;;15.50;12.07;;;12.40;99.90;;;;;;5113786;28;20027;-62
2023/09/10 04:58:51;;;;;;;16.05;11.23;;;12.30;99.90;;;;;;5114046;28;20035;-62
2023/09/10 05:01:16;;;;;;;13.10;11.13;;;12.40;99.90;;;;;;5095697;28;20084;-62
2023/09/10 05:03:42;;;;;;;13.65;10.95;;;12.40;99.90;;;;;;5095498;28;20035;-62
2023/09/10 05:06:09;;;;;;;14.48;10.88;;;12.40;99.90;;;;;;5095645;28;20077;-62
2023/09/10 05:08:34;;;;;;;14.55;11.30;;;12.40;99.90;;;;;;5095917;28;20053;-62
2023/09/10 05:11:00;;;;;;;13.93;10.70;;;12.50;99.90;;;;;;5113913;28;20024;-62
2023/09/10 05:13:26;;;;;;;14.55;11.40;;;12.50;99.90;;;;;;5095478;28;20031;-62
2023/09/10 05:15:57;;;;;;;13.65;10.77;;;;;;;;;;5116701;28;20039;-62
2023/09/10 05:18:26;;;;;;;14.40;11.88;;;12.60;99.90;;;;;;5099439;28;20026;-62
2023/09/10 05:20:52;;;;;;;;;;;12.60;99.90;;;;;;5118146;28;20058;-62
2023/09/10 05:23:20;;;;;;;14.45;11.02;;;12.70;99.90;;;;;;5117866;28;19954;-62
2023/09/10 05:25:46;;;;;;;13.20;11.02;;;12.80;99.90;;;;;;5099734;28;20046;-62
2023/09/10 05:28:11;;;;;;;13.48;11.05;;;13.00;99.90;;;;;;5099322;28;20381;-62
2023/09/10 05:30:37;;;;;;;12.80;9.70;;;13.20;99.90;;;;;;5117246;28;20102;-62
2023/09/10 05:33:03;;;;;;;13.57;10.18;;;13.30;99.90;;;;;;5117190;28;20032;-62
2023/09/10 05:35:29;;;;;;;10.02;8.88;;;13.60;99.90;;;;;;5116851;28;20030;-62
2023/09/10 05:37:55;;;;;;;12.98;9.50;;;13.80;99.90;;;;;;5096067;28;20019;-62
2023/09/10 05:40:20;;;;;;;10.38;9.25;;;14.00;99.90;;;;;;5098795;28;20027;-62
2023/09/10 05:42:46;;;;;;;12.75;8.48;;;14.10;99.90;;;;;;5116914;28;20058;-62
2023/09/10 05:45:12;;;;;;;14.85;9.25;;;14.20;99.90;;;;;;5098716;28;20035;-62
2023/09/10 05:47:37;;;;;;;10.55;8.68;;;14.30;99.90;;;;;;5116985;28;20032;-62
2023/09/10 05:50:03;;;;;;;11.00;8.70;;;14.50;99.90;;;;;;5116813;28;20024;-62
2023/09/10 05:52:29;;;;;;;9.57;7.35;;;14.80;99.90;;;;;;5098460;28;20454;-63
2023/09/10 05:54:55;;;;;;;9.13;7.95;;;14.90;99.90;;;;;;5117149;28;20048;-62
2023/09/10 05:57:20;;;;;;;9.48;8.38;;;15.10;99.90;;;;;;5096374;28;20028;-63
2023/09/10 05:59:46;;;;;;;10.23;7.97;;;15.20;99.90;;;;;;5098628;28;20090;-62
2023/09/10 06:02:12;;;;;;;9.05;7.38;;;15.40;99.90;;;;;;5096283;28;20044;-63
2023/09/10 06:04:37;;;;;;;8.13;7.32;;;15.60;99.90;;;;;;5095839;28;20024;-63
2023/09/10 06:07:03;;;;;;;10.60;7.05;;;15.90;99.90;;;;;;5096394;28;20377;-63
2023/09/10 06:09:30;;;;;;;8.13;6.60;;;16.30;99.90;;;;;;5096168;28;20109;-63
2023/09/10 06:11:56;;;;;;;9.40;6.70;;;16.70;99.90;;;;;;5096425;28;20024;-64
2023/09/10 06:14:22;;;;;;;8.45;6.35;;;17.10;99.90;;;;;;5096106;28;20074;-62
2023/09/10 06:16:47;;;;;;;10.13;6.15;;;17.50;99.90;;;;;;5095802;28;20028;-63
2023/09/10 06:19:14;;;;;;;7.10;5.95;;;17.70;99.90;;;;;;5077782;28;20054;-62
2023/09/10 06:21:40;;;;;;;8.13;6.38;;;18.00;99.90;;;;;;5095896;28;20059;-62
2023/09/10 06:24:06;;;;;;;8.57;6.63;;;18.40;99.90;;;;;;5077743;28;20031;-62
2023/09/10 06:26:32;;;;;;;8.98;5.40;;;18.70;99.90;;;;;;5095376;28;20028;-62
2023/09/10 06:29:00;;;;;;;7.05;5.97;;;19.10;99.90;;;;;;5095683;28;20111;-63
2023/09/10 06:31:25;;;;;;;16.73;6.05;;;19.30;99.90;;;;;;5078032;28;20028;-63
2023/09/10 06:33:52;;;;;;;6.65;5.90;;;19.70;99.90;;;;;;5095583;28;20085;-63
2023/09/10 06:36:18;;;;;;;7.30;5.97;;;20.10;99.90;;;;;;5095558;28;20054;-62
2023/09/10 06:38:47;;;;;;;6.40;5.28;;;20.40;99.90;;;;;;5095486;28;20036;-62
2023/09/10 06:41:15;;;;;;;8.60;5.80;;;20.80;99.90;;;;;;5095889;28;20045;-62
2023/09/10 06:43:40;;;;;;;6.35;5.15;;;21.10;99.90;;;;;;5095344;28;20035;-62
2023/09/10 06:46:06;;;;;;;8.05;5.45;;;21.40;99.90;;;;;;5095640;28;20024;-62
2023/09/10 06:48:32;;;;;;;6.53;5.93;;;21.70;99.90;;;;;;5095076;28;20493;-62
2023/09/10 06:51:00;;;;;;;6.00;5.40;;;22.10;99.90;;;;;;5095075;28;20024;-62
2023/09/10 06:53:27;;;;;;;11.77;6.65;;;22.60;99.90;;;;;;5077610;28;20028;-62
2023/09/10 06:55:54;;;;;;;5.95;5.38;;;22.90;99.90;;;;;;5095386;28;20043;-60
2023/09/10 06:58:20;;;;;;;5.53;5.03;;;23.10;99.90;;;;;;5093921;28;20020;-63
2023/09/10 07:00:45;;;;;;;6.13;4.55;;;23.10;99.90;;;;;;5095077;28;20030;-60
2023/09/10 07:03:13;;;;;;;6.95;5.90;;;23.20;99.70;;;;;;5094955;28;20024;-62
2023/09/10 07:05:42;;;;;;;6.97;5.20;;;23.40;99.30;;;;;;5076965;28;20090;-60
2023/09/10 07:08:10;;;;;;;6.55;5.70;;;23.60;98.80;;;;;;5095216;28;20400;-60
2023/09/10 07:10:39;;;;;;;10.35;5.25;;;23.90;98.00;;;;;;5095062;28;20020;-60
2023/09/10 07:13:06;;;;;;;;;;;24.50;97.20;;;;;;5095047;28;20036;-60
2023/09/10 07:15:34;;;;;;;6.75;5.75;;;25.10;96.40;;;;;;5094970;28;19904;-60
2023/09/10 07:18:00;;;;;;;;;;;25.10;94.50;;;;;;5095322;28;20040;-60
2023/09/10 07:20:27;;;;;;;7.95;5.97;;;25.10;94.20;;;;;;5076315;28;20276;-61
2023/09/10 07:22:53;;;;;;;16.80;6.43;;;25.20;93.50;;;;;;5094647;28;20028;-60
2023/09/10 07:25:19;;;;;;;7.72;5.68;;;25.30;93.70;;;;;;5094697;28;20028;-60
2023/09/10 07:27:44;;;;;;;7.07;5.60;;;25.60;92.50;;;;;;5094472;28;20494;-60
2023/09/10 07:30:11;;;;;;;7.75;5.82;;;25.70;91.80;;;;;;5076239;28;20020;-61
2023/09/10 07:32:37;;;;;;;13.85;6.55;;;25.80;91.60;;;;;;5075879;28;20030;-60
2023/09/10 07:35:03;;;;;;;8.15;5.72;;;26.00;91.10;;;;;;5094255;28;20032;-60
2023/09/10 07:37:29;;;;;;;9.25;5.75;;;26.30;90.40;;;;;;5094215;28;20032;-60
2023/09/10 07:39:54;;;;;;;7.28;5.45;;;26.40;90.10;;;;;;5094026;28;20397;-60
2023/09/10 07:42:20;;;;;;;9.23;5.75;;;26.60;88.70;;;;;;5076128;28;20091;-60
2023/09/10 07:44:45;;;;;;;5.78;5.28;;;26.60;88.20;;;;;;5094398;28;20056;-60
2023/09/10 07:47:11;;;;;;;7.28;6.10;;;26.70;87.70;;;;;;5076237;28;20055;-60
2023/09/10 07:49:37;;;;;;;5.88;5.28;;;26.70;86.50;;;;;;5075853;28;20024;-60
2023/09/10 07:52:04;;;;;;;7.15;5.30;;;26.80;86.20;;;;;;5062530;28;20045;-60
2023/09/10 07:54:35;;;;;;;7.57;5.80;;;27.10;84.90;;;;;;5054068;28;20108;-61
2023/09/10 07:57:01;;;;;;;5.20;4.80;;;27.20;84.40;;;;;;5054325;28;20028;-60
2023/09/10 07:59:27;;;;;;;7.22;5.68;;;27.40;83.40;;;;;;5052686;28;20033;-61
2023/09/10 08:01:52;;;;;;;6.20;5.20;;;27.70;82.20;;;;;;5054038;28;20073;-61
2023/09/10 08:04:18;;;;;;;7.53;5.20;;;28.00;81.60;;;;;;5053865;28;20037;-61
2023/09/10 08:06:44;;;;;;;8.30;5.07;;;28.20;79.90;;;;;;5053502;28;20437;-61
2023/09/10 08:09:09;;;;;;;5.72;4.88;;;28.40;79.50;;;;;;5054170;28;20025;-61
2023/09/10 08:11:35;;;;;;;5.18;4.63;;;28.90;77.40;;;;;;5053876;28;20021;-61
2023/09/10 08:14:01;;;;;;;6.25;4.90;;;29.20;75.30;;;;;;5053284;28;20059;-72
2023/09/10 08:16:26;;;;;;;6.25;5.03;;;29.00;75.00;;;;;;5054605;28;20071;-74
2023/09/10 08:18:52;;;;;;;8.43;5.40;;;29.20;73.60;;;;;;5052812;28;20704;-74
2023/09/10 08:21:17;;;;;;;4.82;4.43;;;29.00;73.90;;;;;;5052483;28;20021;-73
2023/09/10 08:23:44;;;;;;;5.95;5.22;;;28.90;74.50;;;;;;5054449;28;20028;-75
2023/09/10 08:26:10;;;;;;;9.40;5.13;;;29.00;73.30;;;;;;5054982;28;20025;-74
2023/09/10 08:28:36;;;;;;;7.32;5.32;;;29.40;73.10;;;;;;5063029;28;20031;-74
2023/09/10 08:31:02;;;;;;;7.55;5.60;;;29.90;72.20;;;;;;5061106;28;20029;-74
2023/09/10 08:33:27;;;;;;;9.27;5.55;;;30.30;69.80;;;;;;5063446;28;20036;-74
2023/09/10 08:35:54;;;;;;;5.90;4.88;;;30.30;68.40;;;;;;5064035;28;20101;-74
2023/09/10 08:38:20;;;;;;;6.75;5.57;;;30.20;68.00;;;;;;5058653;28;20028;-75
2023/09/10 08:40:49;;;;;;;7.35;4.38;;;30.20;68.60;;;;;;5052926;28;20067;-62
2023/09/10 08:43:18;;;;;;;6.32;4.78;;;29.90;67.90;;;;;;5052434;28;20025;-63
2023/09/10 08:45:43;;;;;;;6.80;4.85;;;30.10;68.10;;;;;;5054022;28;20033;-62
2023/09/10 08:48:10;;;;;;;11.73;5.50;;;30.40;66.30;;;;;;5052342;28;20052;-62
2023/09/10 08:50:36;;;;;;;6.05;5.53;;;30.50;66.40;;;;;;5056400;28;20048;-62
2023/09/10 08:53:05;;;;;;;4.60;4.20;;;31.10;64.60;;;;;;5056290;28;20048;-62
2023/09/10 08:55:32;;;;;;;6.07;4.93;;;31.50;64.70;;;;;;5057515;28;20021;-62
2023/09/10 08:57:59;;;;;;;6.32;4.85;;;31.70;62.40;;;;;;5056186;28;20031;-62
2023/09/10 09:00:25;;;;;;;6.95;4.70;;;32.00;61.20;;;;;;5057074;28;20470;-63
2023/09/10 09:02:52;;;;;;;6.00;4.43;;;32.50;60.20;;;;;;5055852;28;20033;-63
2023/09/10 09:05:18;;;;;;;4.88;4.47;;;32.60;58.70;;;;;;5057239;28;20071;-63
2023/09/10 09:07:51;;;;;;;4.72;4.43;;;32.60;59.20;;;;;;5057488;28;20071;-65
2023/09/10 09:10:25;;;;;;;5.63;4.60;;;33.10;58.20;;;;;;5056521;28;20037;-62
2023/09/10 09:12:57;;;;;;;6.63;4.40;;;33.60;57.90;;;;;;5058043;28;20028;-63
2023/09/10 09:15:24;;;;;;;9.70;4.85;;;33.60;56.20;;;;;;5061281;28;20071;-65
2023/09/10 09:17:50;;;;;;;6.63;4.17;;;33.80;55.50;;;;;;5060931;28;20131;-65
2023/09/10 09:20:19;;;;;;;7.75;4.47;;;34.20;54.70;;;;;;5060503;28;20068;-64
2023/09/10 09:22:49;;;;;;;4.65;4.25;;;34.70;54.00;;;;;;5060023;28;20029;-63
2023/09/10 09:25:16;;;;;;;5.32;4.32;;;35.40;52.10;;;;;;5055966;28;20111;-65
2023/09/10 09:27:43;;;;;;;9.00;4.85;;;35.60;52.00;;;;;;5056718;28;20444;-64
2023/09/10 09:30:09;;;;;;;5.32;4.25;;;35.70;51.20;;;;;;5056759;28;20053;-65
2023/09/10 09:32:37;;;;;;;5.60;4.05;;;35.70;50.50;;;;;;5056270;28;20033;-65
2023/09/10 09:35:03;;;;;;;4.47;4.07;;;35.90;49.40;;;;;;5054998;28;20029;-65
2023/09/10 09:37:33;;;;;;;5.60;3.95;;;36.00;48.70;;;;;;5056104;28;20029;-65
2023/09/10 09:40:09;;;;;;;4.18;3.80;;;35.80;48.80;;;;;;5056513;28;20029;-65
2023/09/10 09:42:36;;;;;;;5.20;4.18;;;36.00;48.30;;;;;;5056441;28;20036;-65
2023/09/10 09:45:02;;;;;;;5.15;3.75;;;36.30;47.50;;;;;;5055135;28;20037;-65
2023/09/10 09:47:29;;;;;;;5.90;4.28;;;35.90;47.00;;;;;;5056305;28;20037;-65
2023/09/10 09:49:56;;;;;;;5.03;4.00;;;36.20;46.80;;;;;;5055883;28;20036;-65
2023/09/10 09:52:22;;;;;;;7.00;3.97;;;36.20;46.20;;;;;;5054902;28;20075;-66
2023/09/10 09:54:48;;;;;;;6.30;4.00;;;36.70;46.40;;;;;;5056429;28;20033;-65
2023/09/10 09:57:15;;;;;;;5.28;4.00;;;37.10;45.40;;;;;;5056066;28;20159;-66
2023/09/10 09:59:41;;;;;;;4.35;3.60;;;37.10;45.40;;;;;;5056171;28;20025;-65
2023/09/10 10:02:17;;;;;;;6.85;3.92;;;37.20;45.30;;;;;;5055965;28;20486;-65
2023/09/10 10:04:44;;;;;;;5.67;4.27;;;37.40;45.30;;;;;;5056313;28;20036;-65
2023/09/10 10:07:12;;;;;;;4.50;3.53;;;37.80;44.40;;;;;;5054630;28;20625;-66
2023/09/10 10:09:40;;;;;;;4.03;3.72;;;37.90;44.00;;;;;;5054669;28;20028;-65
2023/09/10 10:12:07;;;;;;;4.10;3.70;;;37.90;43.90;;;;;;5055811;28;20025;-65
2023/09/10 10:14:34;;;;;;;4.60;3.60;;;37.80;43.10;;;;;;5054973;28;20401;-65
2023/09/10 10:17:01;;;;;;;4.07;3.67;;;37.20;44.00;;;;;;5055838;28;20359;-71
2023/09/10 10:19:37;;;;;;;17.55;4.15;;;36.60;43.70;;;;;;5055674;28;20084;-60
2023/09/10 10:22:05;;;;;;;6.85;4.10;;;36.60;46.40;;;;;;5055694;28;20028;-59
2023/09/10 10:24:32;;;;;;;7.43;3.72;;;36.40;46.20;;;;;;5055599;28;20028;-60
2023/09/10 10:27:01;;;;;;;3.83;3.53;;;36.30;46.90;;;;;;5055590;28;20017;-59
2023/09/10 10:29:28;;;;;;;6.32;3.47;;;36.10;44.50;;;;;;5055483;28;20104;-59
2023/09/10 10:32:10;;;;;;;7.20;3.90;;;35.90;45.60;;;;;;5055561;28;20064;-59
2023/09/10 10:34:38;;;;;;;4.15;3.78;;;35.70;44.40;;;;;;5054266;28;20280;-58
2023/09/10 10:37:15;;;;;;;3.78;3.10;;;36.00;44.10;;;;;;5055570;28;20057;-70
2023/09/10 10:39:47;;;;;;;3.30;2.57;;;36.90;46.10;;;;;;5054180;28;20037;-67
2023/09/10 10:42:16;;;;;;;5.47;3.15;;;38.10;42.90;;;;;;5054881;28;20025;-65
2023/09/10 10:44:43;;;;;;;3.03;2.83;;;39.70;41.90;;;;;;5053695;28;20025;-65
2023/09/10 10:47:13;;;;;;;3.40;3.10;;;40.90;40.00;;;;;;5055240;28;20037;-65
2023/09/10 10:49:50;;;;;;;4.25;3.20;;;41.40;38.90;;;;;;5055385;28;20029;-65
2023/09/10 10:52:20;;;;;;;3.35;3.05;;;42.40;38.10;;;;;;5078536;28;20131;-68
2023/09/10 10:54:49;;;;;;;3.60;3.30;;;42.50;36.60;;;;;;5095810;28;20469;-66
2023/09/10 10:57:15;;;;;;;4.05;3.53;;;41.90;36.80;;;;;;5095482;28;20031;-69
2023/09/10 10:59:41;;;;;;;3.83;3.17;;;41.80;36.70;;;;;;5077305;28;20020;-67
2023/09/10 11:02:24;;;;;;;3.40;3.10;;;41.80;37.00;;;;;;5095081;28;20449;-66
2023/09/10 11:05:01;;;;;;;3.83;3.53;;;41.80;36.40;;;;;;5095233;28;20027;-68
2023/09/10 11:07:29;;;;;;;5.20;2.92;;;41.50;37.00;;;;;;5077193;28;20027;-66
2023/09/10 11:09:58;;;;;;;3.33;3.00;;;41.20;37.00;;;;;;5076789;28;20043;-66
2023/09/10 11:12:25;;;;;;;3.75;3.00;;;41.20;37.50;;;;;;5093862;28;20140;-65
2023/09/10 11:14:59;;;;;;;3.70;2.85;;;40.90;36.70;;;;;;5076649;28;20048;-71
2023/09/10 11:17:32;;;;;;;5.05;3.65;;;40.90;37.30;;;;;;5076654;28;20377;-66
2023/09/10 11:19:58;;;;;;;4.60;4.28;;;40.90;37.80;;;;;;5076323;28;20024;-67
2023/09/10 11:22:24;;;;;;;3.83;3.45;;;40.80;38.20;;;;;;5094459;28;20116;-66
2023/09/10 11:25:07;;;;;;;3.78;3.47;;;40.80;38.90;;;;;;5076409;28;20457;-66
2023/09/10 11:27:34;;;;;;;3.83;3.53;;;41.10;38.00;;;;;;5094290;28;20028;-70
2023/09/10 11:30:26;;;;;;;3.92;3.63;;;41.20;38.30;;;;;;5076110;28;20123;-69
2023/09/10 11:33:33;;;;;;;4.75;3.78;;;40.80;38.60;;;;;;5090416;28;20043;-68
2023/09/10 11:35:59;;;;;;;3.93;3.63;;;40.80;38.60;;;;;;5076369;28;20466;-68
2023/09/10 11:38:31;;;;;;;5.47;3.60;;;40.80;37.90;;;;;;5093188;28;20030;-71
2023/09/10 11:40:58;;;;;;;3.67;3.38;;;40.80;37.70;;;;;;5076045;28;20062;-71
2023/09/10 11:43:24;;;;;;;5.28;4.25;;;41.10;38.00;;;;;;5094388;28;20497;-68
2023/09/10 11:45:49;;;;;;;3.92;3.70;;;41.30;38.00;;;;;;5076016;28;20115;-67
2023/09/10 11:48:15;;;;;;;3.97;3.67;;;41.10;37.50;;;;;;5094294;28;20024;-71
2023/09/10 11:50:44;;;;;;;3.88;3.58;;;41.00;36.80;;;;;;5076193;28;20515;-69
2023/09/10 11:53:10;;;;;;;3.65;3.42;;;40.80;37.50;;;;;;5075455;28;20079;-71
2023/09/10 11:55:35;;;;;;;3.50;3.20;;;40.90;37.90;;;;;;5094189;28;20101;-69
2023/09/10 11:58:01;;;;;;;4.03;3.72;;;41.10;37.20;;;;;;5094429;28;20024;-67
2023/09/10 12:00:27;;;;;;;4.03;3.63;;;40.70;37.70;;;;;;5076168;28;20023;-68
2023/09/10 12:02:55;;;;;;;4.25;3.85;;;41.20;37.60;;;;;;5094326;28;20079;-67
2023/09/10 12:05:21;;;;;;;5.45;4.15;;;41.20;36.60;;;;;;5075645;28;20026;-67
2023/09/10 12:07:46;;;;;;;3.70;3.40;;;40.90;37.00;;;;;;5075852;28;20028;-66
2023/09/10 12:10:15;;;;;;;8.38;4.40;;;41.30;36.50;;;;;;5093957;28;20113;-66
2023/09/10 12:12:42;;;;;;;3.97;3.67;;;40.90;37.00;;;;;;5093626;28;20032;-65
2023/09/10 12:15:09;;;;;;;4.03;3.72;;;41.20;36.90;;;;;;5094085;28;20048;-65
2023/09/10 12:17:34;;;;;;;5.25;3.80;;;41.30;36.10;;;;;;5093799;28;20036;-67
2023/09/10 12:20:00;;;;;;;4.18;3.88;;;41.20;36.50;;;;;;5093492;28;20034;-68
2023/09/10 12:22:26;;;;;;;4.40;4.00;;;41.30;36.80;;;;;;5094158;28;20020;-67
2023/09/10 12:24:51;;;;;;;4.53;4.03;;;41.20;36.30;;;;;;5075376;28;20020;-65
2023/09/10 12:27:17;;;;;;;5.50;3.72;;;41.00;36.70;;;;;;5093574;28;20020;-66
2023/09/10 12:29:43;;;;;;;4.28;3.92;;;41.00;36.50;;;;;;5093800;28;20026;-67
2023/09/10 12:32:09;;;;;;;4.15;3.75;;;40.90;36.60;;;;;;5093562;28;20028;-66
2023/09/10 12:34:36;;;;;;;4.47;3.70;;;41.10;36.80;;;;;;5092666;28;20112;-66
2023/09/10 12:37:03;;;;;;;4.80;4.40;;;40.80;36.30;;;;;;5093443;28;20424;-66
2023/09/10 12:39:33;;;;;;;4.65;4.25;;;41.00;35.70;;;;;;5075762;28;20114;-65
2023/09/10 12:42:02;;;;;;;5.40;4.90;;;40.30;35.50;;;;;;5075867;28;20513;-66